sensor_id;sensor_type;location;lat;lon;timestamp;P1;durP1;ratioP1;P2;durP2;ratioP2
21777;SDS011;11050;52.222;20.916;2022-09-21T00:01:10;10.63;;;6.27;;
21777;SDS011;11050;52.222;20.916;2022-09-21T00:03:42;9.77;;;6.40;;
21777;SDS011;11050;52.222;20.916;2022-09-21T00:06:10;9.33;;;5.63;;
21777;SDS011;11050;52.222;20.916;2022-09-21T00:08:41;10.57;;;5.17;;
21777;SDS011;11050;52.222;20.916;2022-09-21T00:11:13;7.63;;;5.63;;
21777;SDS011;11050;52.222;20.916;2022-09-21T00:13:43;8.97;;;5.80;;
21777;SDS011;11050;52.222;20.916;2022-09-21T00:16:11;10.37;;;6.07;;
21777;SDS011;11050;52.222;20.916;2022-09-21T00:18:39;11.17;;;6.20;;
21777;SDS011;11050;52.222;20.916;2022-09-21T00:21:05;9.87;;;6.13;;
21777;SDS011;11050;52.222;20.916;2022-09-21T00:23:38;10.50;;;6.27;;
21777;SDS011;11050;52.222;20.916;2022-09-21T00:26:06;10.90;;;5.73;;
21777;SDS011;11050;52.222;20.916;2022-09-21T00:28:53;10.63;;;6.30;;
21777;SDS011;11050;52.222;20.916;2022-09-21T00:31:21;8.67;;;5.90;;
21777;SDS011;11050;52.222;20.916;2022-09-21T00:33:48;9.43;;;6.10;;
21777;SDS011;11050;52.222;20.916;2022-09-21T00:36:15;10.38;;;6.60;;
21777;SDS011;11050;52.222;20.916;2022-09-21T00:38:43;10.90;;;6.70;;
21777;SDS011;11050;52.222;20.916;2022-09-21T00:41:13;10.00;;;6.23;;
21777;SDS011;11050;52.222;20.916;2022-09-21T00:43:41;10.33;;;6.20;;
21777;SDS011;11050;52.222;20.916;2022-09-21T00:46:20;11.73;;;6.17;;
21777;SDS011;11050;52.222;20.916;2022-09-21T00:48:53;10.83;;;6.27;;
21777;SDS011;11050;52.222;20.916;2022-09-21T00:51:21;12.37;;;6.10;;
21777;SDS011;11050;52.222;20.916;2022-09-21T00:53:46;11.43;;;6.67;;
21777;SDS011;11050;52.222;20.916;2022-09-21T00:56:22;11.27;;;6.40;;
21777;SDS011;11050;52.222;20.916;2022-09-21T00:58:49;11.13;;;6.53;;
21777;SDS011;11050;52.222;20.916;2022-09-21T01:01:18;9.90;;;6.70;;
21777;SDS011;11050;52.222;20.916;2022-09-21T01:03:45;11.07;;;7.23;;
21777;SDS011;11050;52.222;20.916;2022-09-21T01:06:12;10.80;;;7.53;;
21777;SDS011;11050;52.222;20.916;2022-09-21T01:08:40;9.85;;;7.55;;
21777;SDS011;11050;52.222;20.916;2022-09-21T01:14:20;12.70;;;8.23;;
21777;SDS011;11050;52.222;20.916;2022-09-21T01:17:20;11.87;;;7.90;;
21777;SDS011;11050;52.222;20.916;2022-09-21T01:31:43;15.57;;;9.20;;
21777;SDS011;11050;52.222;20.916;2022-09-21T01:37:56;13.43;;;8.37;;
21777;SDS011;11050;52.222;20.916;2022-09-21T01:40:41;14.90;;;9.80;;
21777;SDS011;11050;52.222;20.916;2022-09-21T01:43:19;14.83;;;9.47;;
21777;SDS011;11050;52.222;20.916;2022-09-21T01:45:52;15.87;;;10.00;;
21777;SDS011;11050;52.222;20.916;2022-09-21T01:48:22;12.90;;;9.80;;
21777;SDS011;11050;52.222;20.916;2022-09-21T01:50:52;13.47;;;9.20;;
21777;SDS011;11050;52.222;20.916;2022-09-21T01:56:09;16.87;;;11.33;;
21777;SDS011;11050;52.222;20.916;2022-09-21T02:01:47;17.70;;;11.37;;
21777;SDS011;11050;52.222;20.916;2022-09-21T02:04:25;17.10;;;10.67;;
21777;SDS011;11050;52.222;20.916;2022-09-21T02:06:51;13.30;;;9.80;;
21777;SDS011;11050;52.222;20.916;2022-09-21T02:09:18;17.33;;;11.50;;
21777;SDS011;11050;52.222;20.916;2022-09-21T02:11:44;17.40;;;10.50;;
21777;SDS011;11050;52.222;20.916;2022-09-21T02:14:10;15.53;;;11.33;;
21777;SDS011;11050;52.222;20.916;2022-09-21T02:34:31;15.90;;;10.23;;
21777;SDS011;11050;52.222;20.916;2022-09-21T02:39:18;15.03;;;10.20;;
21777;SDS011;11050;52.222;20.916;2022-09-21T02:44:34;21.20;;;12.33;;
21777;SDS011;11050;52.222;20.916;2022-09-21T02:47:13;17.88;;;12.15;;
21777;SDS011;11050;52.222;20.916;2022-09-21T02:49:53;15.63;;;10.93;;
21777;SDS011;11050;52.222;20.916;2022-09-21T02:52:33;19.10;;;11.80;;
21777;SDS011;11050;52.222;20.916;2022-09-21T02:55:04;17.90;;;12.15;;
21777;SDS011;11050;52.222;20.916;2022-09-21T02:57:32;23.03;;;13.37;;
21777;SDS011;11050;52.222;20.916;2022-09-21T03:00:02;22.40;;;12.70;;
21777;SDS011;11050;52.222;20.916;2022-09-21T03:02:36;19.30;;;12.37;;
21777;SDS011;11050;52.222;20.916;2022-09-21T03:05:05;19.97;;;12.50;;
21777;SDS011;11050;52.222;20.916;2022-09-21T03:07:32;19.87;;;12.70;;
21777;SDS011;11050;52.222;20.916;2022-09-21T03:09:58;18.92;;;12.18;;
21777;SDS011;11050;52.222;20.916;2022-09-21T03:12:24;20.90;;;12.50;;
21777;SDS011;11050;52.222;20.916;2022-09-21T03:14:50;23.33;;;12.82;;
21777;SDS011;11050;52.222;20.916;2022-09-21T03:17:17;20.92;;;12.23;;
21777;SDS011;11050;52.222;20.916;2022-09-21T03:19:43;17.77;;;11.33;;
21777;SDS011;11050;52.222;20.916;2022-09-21T03:22:09;18.03;;;11.80;;
21777;SDS011;11050;52.222;20.916;2022-09-21T03:24:35;16.20;;;10.53;;
21777;SDS011;11050;52.222;20.916;2022-09-21T03:27:10;18.67;;;11.80;;
21777;SDS011;11050;52.222;20.916;2022-09-21T03:29:38;19.50;;;12.27;;
21777;SDS011;11050;52.222;20.916;2022-09-21T03:32:04;19.37;;;12.90;;
21777;SDS011;11050;52.222;20.916;2022-09-21T03:34:30;21.70;;;12.70;;
21777;SDS011;11050;52.222;20.916;2022-09-21T03:36:58;16.20;;;11.03;;
21777;SDS011;11050;52.222;20.916;2022-09-21T03:39:25;16.17;;;11.13;;
21777;SDS011;11050;52.222;20.916;2022-09-21T03:41:51;16.20;;;11.02;;
21777;SDS011;11050;52.222;20.916;2022-09-21T03:44:19;17.93;;;11.30;;
21777;SDS011;11050;52.222;20.916;2022-09-21T03:46:45;19.43;;;11.70;;
21777;SDS011;11050;52.222;20.916;2022-09-21T03:49:11;16.60;;;11.50;;
21777;SDS011;11050;52.222;20.916;2022-09-21T03:51:37;16.83;;;10.82;;
21777;SDS011;11050;52.222;20.916;2022-09-21T03:54:03;16.90;;;11.60;;
21777;SDS011;11050;52.222;20.916;2022-09-21T03:56:29;20.37;;;11.73;;
21777;SDS011;11050;52.222;20.916;2022-09-21T03:58:55;15.88;;;10.60;;
21777;SDS011;11050;52.222;20.916;2022-09-21T04:01:21;13.93;;;10.30;;
21777;SDS011;11050;52.222;20.916;2022-09-21T04:03:47;13.50;;;10.07;;
21777;SDS011;11050;52.222;20.916;2022-09-21T04:06:13;15.33;;;10.70;;
21777;SDS011;11050;52.222;20.916;2022-09-21T04:08:39;15.57;;;10.23;;
21777;SDS011;11050;52.222;20.916;2022-09-21T04:11:08;14.70;;;10.33;;
21777;SDS011;11050;52.222;20.916;2022-09-21T04:13:35;15.73;;;9.63;;
21777;SDS011;11050;52.222;20.916;2022-09-21T04:16:01;14.15;;;9.90;;
21777;SDS011;11050;52.222;20.916;2022-09-21T04:18:27;13.67;;;10.07;;
21777;SDS011;11050;52.222;20.916;2022-09-21T04:20:53;13.50;;;9.90;;
21777;SDS011;11050;52.222;20.916;2022-09-21T04:23:19;15.00;;;10.23;;
21777;SDS011;11050;52.222;20.916;2022-09-21T04:25:46;14.80;;;9.13;;
21777;SDS011;11050;52.222;20.916;2022-09-21T04:28:16;13.97;;;10.47;;
21777;SDS011;11050;52.222;20.916;2022-09-21T04:30:43;12.75;;;9.93;;
21777;SDS011;11050;52.222;20.916;2022-09-21T04:33:08;14.07;;;10.13;;
21777;SDS011;11050;52.222;20.916;2022-09-21T04:35:34;12.13;;;9.47;;
21777;SDS011;11050;52.222;20.916;2022-09-21T04:38:00;14.93;;;10.40;;
21777;SDS011;11050;52.222;20.916;2022-09-21T04:40:26;15.27;;;10.40;;
21777;SDS011;11050;52.222;20.916;2022-09-21T04:42:52;14.83;;;10.03;;
21777;SDS011;11050;52.222;20.916;2022-09-21T04:45:19;12.33;;;9.07;;
21777;SDS011;11050;52.222;20.916;2022-09-21T04:47:47;14.17;;;11.00;;
21777;SDS011;11050;52.222;20.916;2022-09-21T04:50:13;15.40;;;10.90;;
21777;SDS011;11050;52.222;20.916;2022-09-21T04:52:40;13.93;;;10.53;;
21777;SDS011;11050;52.222;20.916;2022-09-21T04:55:06;19.17;;;12.23;;
21777;SDS011;11050;52.222;20.916;2022-09-21T04:57:33;15.93;;;11.30;;
21777;SDS011;11050;52.222;20.916;2022-09-21T04:59:59;13.88;;;10.50;;
21777;SDS011;11050;52.222;20.916;2022-09-21T05:02:27;15.82;;;10.32;;
21777;SDS011;11050;52.222;20.916;2022-09-21T05:04:53;13.57;;;10.63;;
21777;SDS011;11050;52.222;20.916;2022-09-21T05:07:18;14.63;;;10.35;;
21777;SDS011;11050;52.222;20.916;2022-09-21T05:09:44;24.90;;;11.17;;
21777;SDS011;11050;52.222;20.916;2022-09-21T05:12:29;15.40;;;11.02;;
21777;SDS011;11050;52.222;20.916;2022-09-21T05:14:59;15.25;;;10.32;;
21777;SDS011;11050;52.222;20.916;2022-09-21T05:17:26;16.52;;;10.65;;
21777;SDS011;11050;52.222;20.916;2022-09-21T05:19:52;14.98;;;10.65;;
21777;SDS011;11050;52.222;20.916;2022-09-21T05:22:21;16.58;;;9.95;;
21777;SDS011;11050;52.222;20.916;2022-09-21T05:24:47;13.73;;;9.82;;
21777;SDS011;11050;52.222;20.916;2022-09-21T05:27:13;14.77;;;10.75;;
21777;SDS011;11050;52.222;20.916;2022-09-21T05:29:39;12.00;;;9.93;;
21777;SDS011;11050;52.222;20.916;2022-09-21T05:37:39;21.63;;;10.80;;
21777;SDS011;11050;52.222;20.916;2022-09-21T05:40:11;12.45;;;10.20;;
21777;SDS011;11050;52.222;20.916;2022-09-21T05:42:38;13.07;;;9.67;;
21777;SDS011;11050;52.222;20.916;2022-09-21T05:45:05;12.25;;;9.80;;
21777;SDS011;11050;52.222;20.916;2022-09-21T05:47:37;18.20;;;10.13;;
21777;SDS011;11050;52.222;20.916;2022-09-21T05:52:59;14.05;;;10.30;;
21777;SDS011;11050;52.222;20.916;2022-09-21T05:58:25;15.63;;;9.50;;
21777;SDS011;11050;52.222;20.916;2022-09-21T06:03:38;12.93;;;9.20;;
21777;SDS011;11050;52.222;20.916;2022-09-21T06:06:06;11.88;;;8.73;;
21777;SDS011;11050;52.222;20.916;2022-09-21T06:08:33;10.75;;;8.50;;
21777;SDS011;11050;52.222;20.916;2022-09-21T06:10:59;10.30;;;8.20;;
21777;SDS011;11050;52.222;20.916;2022-09-21T06:13:26;11.60;;;7.47;;
21777;SDS011;11050;52.222;20.916;2022-09-21T06:15:52;11.60;;;8.10;;
21777;SDS011;11050;52.222;20.916;2022-09-21T06:18:17;9.50;;;7.82;;
21777;SDS011;11050;52.222;20.916;2022-09-21T06:20:44;11.55;;;7.80;;
21777;SDS011;11050;52.222;20.916;2022-09-21T06:23:11;10.57;;;7.63;;
21777;SDS011;11050;52.222;20.916;2022-09-21T06:25:38;11.68;;;8.60;;
21777;SDS011;11050;52.222;20.916;2022-09-21T06:28:05;12.00;;;8.45;;
21777;SDS011;11050;52.222;20.916;2022-09-21T06:30:34;10.13;;;7.80;;
21777;SDS011;11050;52.222;20.916;2022-09-21T06:33:01;13.02;;;8.70;;
21777;SDS011;11050;52.222;20.916;2022-09-21T06:35:30;9.50;;;7.07;;
21777;SDS011;11050;52.222;20.916;2022-09-21T06:37:59;8.75;;;6.72;;
21777;SDS011;11050;52.222;20.916;2022-09-21T06:40:27;9.88;;;7.30;;
21777;SDS011;11050;52.222;20.916;2022-09-21T06:42:55;9.13;;;6.25;;
21777;SDS011;11050;52.222;20.916;2022-09-21T06:45:23;7.28;;;6.00;;
21777;SDS011;11050;52.222;20.916;2022-09-21T06:47:51;8.52;;;5.70;;
21777;SDS011;11050;52.222;20.916;2022-09-21T06:50:17;7.05;;;5.75;;
21777;SDS011;11050;52.222;20.916;2022-09-21T06:52:43;7.32;;;5.63;;
21777;SDS011;11050;52.222;20.916;2022-09-21T06:55:09;8.82;;;5.38;;
21777;SDS011;11050;52.222;20.916;2022-09-21T06:57:35;6.53;;;5.30;;
21777;SDS011;11050;52.222;20.916;2022-09-21T07:00:05;7.45;;;5.15;;
21777;SDS011;11050;52.222;20.916;2022-09-21T07:02:34;7.57;;;5.07;;
21777;SDS011;11050;52.222;20.916;2022-09-21T07:05:00;5.72;;;5.20;;
21777;SDS011;11050;52.222;20.916;2022-09-21T07:07:27;8.18;;;4.68;;
21777;SDS011;11050;52.222;20.916;2022-09-21T07:09:56;4.28;;;3.60;;
21777;SDS011;11050;52.222;20.916;2022-09-21T07:12:24;6.68;;;4.30;;
21777;SDS011;11050;52.222;20.916;2022-09-21T07:14:52;4.90;;;4.00;;
21777;SDS011;11050;52.222;20.916;2022-09-21T07:17:18;6.55;;;4.13;;
21777;SDS011;11050;52.222;20.916;2022-09-21T07:19:44;5.68;;;3.75;;
21777;SDS011;11050;52.222;20.916;2022-09-21T07:22:10;4.95;;;3.75;;
21777;SDS011;11050;52.222;20.916;2022-09-21T07:24:36;4.60;;;3.90;;
21777;SDS011;11050;52.222;20.916;2022-09-21T07:27:01;4.75;;;3.40;;
21777;SDS011;11050;52.222;20.916;2022-09-21T07:29:27;4.37;;;3.40;;
21777;SDS011;11050;52.222;20.916;2022-09-21T07:31:54;6.60;;;3.40;;
21777;SDS011;11050;52.222;20.916;2022-09-21T07:34:20;4.78;;;2.97;;
21777;SDS011;11050;52.222;20.916;2022-09-21T07:36:45;6.30;;;3.17;;
21777;SDS011;11050;52.222;20.916;2022-09-21T07:39:11;4.95;;;3.45;;
21777;SDS011;11050;52.222;20.916;2022-09-21T07:41:37;4.70;;;2.80;;
21777;SDS011;11050;52.222;20.916;2022-09-21T07:44:03;3.72;;;2.78;;
21777;SDS011;11050;52.222;20.916;2022-09-21T07:46:29;3.00;;;2.40;;
21777;SDS011;11050;52.222;20.916;2022-09-21T07:48:55;2.95;;;2.22;;
21777;SDS011;11050;52.222;20.916;2022-09-21T07:51:22;3.30;;;2.55;;
21777;SDS011;11050;52.222;20.916;2022-09-21T07:53:53;2.60;;;2.40;;
21777;SDS011;11050;52.222;20.916;2022-09-21T07:56:23;4.03;;;2.35;;
21777;SDS011;11050;52.222;20.916;2022-09-21T07:58:50;6.28;;;2.25;;
21777;SDS011;11050;52.222;20.916;2022-09-21T08:01:34;2.53;;;2.15;;
21777;SDS011;11050;52.222;20.916;2022-09-21T08:04:08;4.22;;;2.47;;
21777;SDS011;11050;52.222;20.916;2022-09-21T08:06:35;4.80;;;2.22;;
21777;SDS011;11050;52.222;20.916;2022-09-21T08:09:04;5.30;;;2.30;;
21777;SDS011;11050;52.222;20.916;2022-09-21T08:11:31;2.90;;;2.10;;
21777;SDS011;11050;52.222;20.916;2022-09-21T08:13:59;2.67;;;2.28;;
21777;SDS011;11050;52.222;20.916;2022-09-21T08:16:27;3.83;;;2.30;;
21777;SDS011;11050;52.222;20.916;2022-09-21T08:18:55;2.22;;;1.85;;
21777;SDS011;11050;52.222;20.916;2022-09-21T08:21:21;2.10;;;1.88;;
21777;SDS011;11050;52.222;20.916;2022-09-21T08:23:47;2.25;;;2.05;;
21777;SDS011;11050;52.222;20.916;2022-09-21T08:26:14;1.80;;;1.70;;
21777;SDS011;11050;52.222;20.916;2022-09-21T08:28:46;1.95;;;1.42;;
21777;SDS011;11050;52.222;20.916;2022-09-21T08:31:16;1.80;;;1.58;;
21777;SDS011;11050;52.222;20.916;2022-09-21T08:33:45;3.22;;;1.90;;
21777;SDS011;11050;52.222;20.916;2022-09-21T08:36:13;1.92;;;1.60;;
21777;SDS011;11050;52.222;20.916;2022-09-21T08:38:39;4.00;;;1.80;;
21777;SDS011;11050;52.222;20.916;2022-09-21T08:41:16;3.15;;;1.80;;
21777;SDS011;11050;52.222;20.916;2022-09-21T08:44:19;2.22;;;1.83;;
21777;SDS011;11050;52.222;20.916;2022-09-21T08:47:04;2.55;;;2.15;;
21777;SDS011;11050;52.222;20.916;2022-09-21T08:49:46;2.30;;;1.50;;
21777;SDS011;11050;52.222;20.916;2022-09-21T08:52:21;3.03;;;1.60;;
21777;SDS011;11050;52.222;20.916;2022-09-21T08:57:16;3.50;;;1.30;;
21777;SDS011;11050;52.222;20.916;2022-09-21T08:59:46;1.90;;;1.58;;
21777;SDS011;11050;52.222;20.916;2022-09-21T09:13:57;2.65;;;1.50;;
21777;SDS011;11050;52.222;20.916;2022-09-21T09:16:47;2.35;;;1.60;;
21777;SDS011;11050;52.222;20.916;2022-09-21T09:19:40;1.80;;;1.70;;
21777;SDS011;11050;52.222;20.916;2022-09-21T09:22:11;1.77;;;1.65;;
21777;SDS011;11050;52.222;20.916;2022-09-21T09:24:51;1.92;;;1.73;;
21777;SDS011;11050;52.222;20.916;2022-09-21T09:27:21;4.13;;;1.90;;
21777;SDS011;11050;52.222;20.916;2022-09-21T09:32:51;2.45;;;1.90;;
21777;SDS011;11050;52.222;20.916;2022-09-21T09:36:01;2.30;;;1.77;;
21777;SDS011;11050;52.222;20.916;2022-09-21T09:52:50;4.68;;;1.38;;
21777;SDS011;11050;52.222;20.916;2022-09-21T09:57:51;2.63;;;1.48;;
21777;SDS011;11050;52.222;20.916;2022-09-21T10:00:20;1.88;;;1.65;;
21777;SDS011;11050;52.222;20.916;2022-09-21T10:02:47;1.42;;;1.27;;
21777;SDS011;11050;52.222;20.916;2022-09-21T10:08:05;1.40;;;1.30;;
21777;SDS011;11050;52.222;20.916;2022-09-21T10:10:52;2.72;;;1.77;;
21777;SDS011;11050;52.222;20.916;2022-09-21T10:13:28;3.28;;;1.40;;
21777;SDS011;11050;52.222;20.916;2022-09-21T10:18:38;2.35;;;1.30;;
21777;SDS011;11050;52.222;20.916;2022-09-21T10:21:22;2.15;;;1.25;;
21777;SDS011;11050;52.222;20.916;2022-09-21T10:23:59;1.65;;;1.20;;
21777;SDS011;11050;52.222;20.916;2022-09-21T10:27:04;2.13;;;1.30;;
21777;SDS011;11050;52.222;20.916;2022-09-21T10:29:42;1.80;;;1.23;;
21777;SDS011;11050;52.222;20.916;2022-09-21T10:34:59;1.50;;;1.00;;
21777;SDS011;11050;52.222;20.916;2022-09-21T10:37:37;1.30;;;1.20;;
21777;SDS011;11050;52.222;20.916;2022-09-21T10:42:44;1.08;;;0.95;;
21777;SDS011;11050;52.222;20.916;2022-09-21T10:45:15;2.08;;;1.20;;
21777;SDS011;11050;52.222;20.916;2022-09-21T10:47:45;2.75;;;1.13;;
21777;SDS011;11050;52.222;20.916;2022-09-21T10:50:41;1.65;;;1.25;;
21777;SDS011;11050;52.222;20.916;2022-09-21T10:55:36;1.55;;;1.30;;
21777;SDS011;11050;52.222;20.916;2022-09-21T10:58:12;2.35;;;1.40;;
21777;SDS011;11050;52.222;20.916;2022-09-21T11:00:40;1.20;;;1.10;;
21777;SDS011;11050;52.222;20.916;2022-09-21T11:06:21;1.23;;;1.02;;
21777;SDS011;11050;52.222;20.916;2022-09-21T11:14:55;0.95;;;0.95;;
21777;SDS011;11050;52.222;20.916;2022-09-21T11:18:20;1.75;;;0.80;;
21777;SDS011;11050;52.222;20.916;2022-09-21T11:27:27;1.27;;;0.98;;
21777;SDS011;11050;52.222;20.916;2022-09-21T11:49:26;3.28;;;1.50;;
21777;SDS011;11050;52.222;20.916;2022-09-21T11:55:16;2.13;;;1.33;;
21777;SDS011;11050;52.222;20.916;2022-09-21T12:00:44;1.25;;;0.88;;
21777;SDS011;11050;52.222;20.916;2022-09-21T12:03:37;3.72;;;0.98;;
21777;SDS011;11050;52.222;20.916;2022-09-21T12:09:45;2.78;;;0.90;;
21777;SDS011;11050;52.222;20.916;2022-09-21T12:12:59;0.80;;;0.75;;
21777;SDS011;11050;52.222;20.916;2022-09-21T12:18:09;0.95;;;0.60;;
21777;SDS011;11050;52.222;20.916;2022-09-21T12:21:14;0.90;;;0.63;;
21777;SDS011;11050;52.222;20.916;2022-09-21T12:23:57;0.60;;;0.60;;
21777;SDS011;11050;52.222;20.916;2022-09-21T12:26:38;0.85;;;0.77;;
21777;SDS011;11050;52.222;20.916;2022-09-21T12:32:17;1.67;;;0.63;;
21777;SDS011;11050;52.222;20.916;2022-09-21T12:34:56;1.73;;;0.63;;
21777;SDS011;11050;52.222;20.916;2022-09-21T12:37:37;1.17;;;0.70;;
21777;SDS011;11050;52.222;20.916;2022-09-21T12:40:30;1.67;;;0.68;;
21777;SDS011;11050;52.222;20.916;2022-09-21T12:43:12;1.17;;;0.70;;
21777;SDS011;11050;52.222;20.916;2022-09-21T12:46:09;1.38;;;0.52;;
21777;SDS011;11050;52.222;20.916;2022-09-21T12:48:50;1.58;;;0.68;;
21777;SDS011;11050;52.222;20.916;2022-09-21T12:51:24;4.13;;;0.77;;
21777;SDS011;11050;52.222;20.916;2022-09-21T12:54:04;2.13;;;0.70;;
21777;SDS011;11050;52.222;20.916;2022-09-21T12:59:48;0.77;;;0.60;;
21777;SDS011;11050;52.222;20.916;2022-09-21T13:08:56;0.77;;;0.70;;
21777;SDS011;11050;52.222;20.916;2022-09-21T13:11:27;0.80;;;0.60;;
21777;SDS011;11050;52.222;20.916;2022-09-21T13:13:59;0.82;;;0.77;;
21777;SDS011;11050;52.222;20.916;2022-09-21T13:16:29;2.15;;;0.80;;
21777;SDS011;11050;52.222;20.916;2022-09-21T13:21:29;1.00;;;0.70;;
21777;SDS011;11050;52.222;20.916;2022-09-21T13:23:58;1.90;;;1.70;;
21777;SDS011;11050;52.222;20.916;2022-09-21T13:26:35;2.70;;;1.45;;
21777;SDS011;11050;52.222;20.916;2022-09-21T13:31:51;0.98;;;0.73;;
21777;SDS011;11050;52.222;20.916;2022-09-21T13:47:48;1.52;;;1.05;;
21777;SDS011;11050;52.222;20.916;2022-09-21T13:50:40;3.00;;;1.10;;
21777;SDS011;11050;52.222;20.916;2022-09-21T13:55:53;2.13;;;1.33;;
21777;SDS011;11050;52.222;20.916;2022-09-21T13:58:26;2.45;;;1.60;;
21777;SDS011;11050;52.222;20.916;2022-09-21T14:01:02;2.25;;;1.50;;
21777;SDS011;11050;52.222;20.916;2022-09-21T14:03:38;1.88;;;1.67;;
21777;SDS011;11050;52.222;20.916;2022-09-21T14:06:23;2.92;;;1.70;;
21777;SDS011;11050;52.222;20.916;2022-09-21T14:09:05;4.35;;;1.55;;
21777;SDS011;11050;52.222;20.916;2022-09-21T14:11:57;3.35;;;1.40;;
21777;SDS011;11050;52.222;20.916;2022-09-21T14:14:32;2.35;;;1.40;;
21777;SDS011;11050;52.222;20.916;2022-09-21T14:17:03;2.08;;;1.50;;
21777;SDS011;11050;52.222;20.916;2022-09-21T14:32:41;1.25;;;1.15;;
21777;SDS011;11050;52.222;20.916;2022-09-21T14:35:17;1.50;;;1.08;;
21777;SDS011;11050;52.222;20.916;2022-09-21T14:37:48;1.55;;;0.98;;
21777;SDS011;11050;52.222;20.916;2022-09-21T14:40:38;2.65;;;0.90;;
21777;SDS011;11050;52.222;20.916;2022-09-21T14:43:15;1.55;;;0.90;;
21777;SDS011;11050;52.222;20.916;2022-09-21T15:10:02;2.97;;;1.40;;
21777;SDS011;11050;52.222;20.916;2022-09-21T15:15:34;1.67;;;1.20;;
21777;SDS011;11050;52.222;20.916;2022-09-21T15:18:44;2.17;;;1.20;;
21777;SDS011;11050;52.222;20.916;2022-09-21T15:21:25;1.40;;;1.00;;
21777;SDS011;11050;52.222;20.916;2022-09-21T15:23:54;1.83;;;1.20;;
21777;SDS011;11050;52.222;20.916;2022-09-21T15:26:24;1.25;;;1.10;;
21777;SDS011;11050;52.222;20.916;2022-09-21T15:29:00;1.60;;;1.13;;
21777;SDS011;11050;52.222;20.916;2022-09-21T15:31:35;4.10;;;1.40;;
21777;SDS011;11050;52.222;20.916;2022-09-21T15:34:04;2.67;;;1.30;;
21777;SDS011;11050;52.222;20.916;2022-09-21T15:36:35;2.05;;;1.27;;
21777;SDS011;11050;52.222;20.916;2022-09-21T15:39:04;2.50;;;1.08;;
21777;SDS011;11050;52.222;20.916;2022-09-21T15:46:57;2.00;;;1.20;;
21777;SDS011;11050;52.222;20.916;2022-09-21T15:49:27;1.75;;;1.00;;
21777;SDS011;11050;52.222;20.916;2022-09-21T15:54:31;2.85;;;1.23;;
21777;SDS011;11050;52.222;20.916;2022-09-21T15:57:05;1.73;;;1.30;;
21777;SDS011;11050;52.222;20.916;2022-09-21T15:59:48;3.53;;;1.52;;
21777;SDS011;11050;52.222;20.916;2022-09-21T16:02:16;2.85;;;1.50;;
21777;SDS011;11050;52.222;20.916;2022-09-21T16:04:49;1.15;;;0.95;;
21777;SDS011;11050;52.222;20.916;2022-09-21T16:10:03;1.73;;;1.38;;
21777;SDS011;11050;52.222;20.916;2022-09-21T16:16:01;2.97;;;1.20;;
21777;SDS011;11050;52.222;20.916;2022-09-21T16:18:30;2.15;;;1.33;;
21777;SDS011;11050;52.222;20.916;2022-09-21T16:23:51;1.83;;;1.30;;
21777;SDS011;11050;52.222;20.916;2022-09-21T16:26:24;1.38;;;1.20;;
21777;SDS011;11050;52.222;20.916;2022-09-21T16:31:48;1.20;;;1.10;;
21777;SDS011;11050;52.222;20.916;2022-09-21T16:36:47;1.65;;;1.20;;
21777;SDS011;11050;52.222;20.916;2022-09-21T16:39:16;1.23;;;0.95;;
21777;SDS011;11050;52.222;20.916;2022-09-21T16:41:44;1.77;;;1.30;;
21777;SDS011;11050;52.222;20.916;2022-09-21T16:44:34;3.03;;;1.52;;
21777;SDS011;11050;52.222;20.916;2022-09-21T16:47:03;2.13;;;1.30;;
21777;SDS011;11050;52.222;20.916;2022-09-21T16:49:49;1.52;;;1.27;;
21777;SDS011;11050;52.222;20.916;2022-09-21T16:52:21;2.10;;;1.05;;
21777;SDS011;11050;52.222;20.916;2022-09-21T16:54:48;1.92;;;1.30;;
21777;SDS011;11050;52.222;20.916;2022-09-21T16:57:14;1.85;;;1.23;;
21777;SDS011;11050;52.222;20.916;2022-09-21T16:59:41;1.63;;;1.10;;
21777;SDS011;11050;52.222;20.916;2022-09-21T17:02:10;3.30;;;1.40;;
21777;SDS011;11050;52.222;20.916;2022-09-21T17:04:38;1.77;;;1.48;;
21777;SDS011;11050;52.222;20.916;2022-09-21T17:07:04;1.90;;;1.70;;
21777;SDS011;11050;52.222;20.916;2022-09-21T17:12:00;2.45;;;1.38;;
21777;SDS011;11050;52.222;20.916;2022-09-21T17:14:30;3.85;;;1.95;;
21777;SDS011;11050;52.222;20.916;2022-09-21T17:16:59;3.15;;;1.65;;
21777;SDS011;11050;52.222;20.916;2022-09-21T17:19:38;2.47;;;1.90;;
21777;SDS011;11050;52.222;20.916;2022-09-21T17:22:06;2.83;;;1.88;;
21777;SDS011;11050;52.222;20.916;2022-09-21T17:24:44;2.78;;;1.77;;
21777;SDS011;11050;52.222;20.916;2022-09-21T17:27:15;5.00;;;2.20;;
21777;SDS011;11050;52.222;20.916;2022-09-21T17:29:43;4.88;;;2.60;;
21777;SDS011;11050;52.222;20.916;2022-09-21T17:32:16;3.53;;;2.35;;
21777;SDS011;11050;52.222;20.916;2022-09-21T17:35:21;3.42;;;2.22;;
21777;SDS011;11050;52.222;20.916;2022-09-21T17:38:03;3.35;;;2.70;;
21777;SDS011;11050;52.222;20.916;2022-09-21T17:40:30;4.63;;;3.13;;
21777;SDS011;11050;52.222;20.916;2022-09-21T17:43:01;4.63;;;2.72;;
21777;SDS011;11050;52.222;20.916;2022-09-21T17:45:41;5.45;;;2.72;;
21777;SDS011;11050;52.222;20.916;2022-09-21T17:48:19;3.92;;;2.70;;
21777;SDS011;11050;52.222;20.916;2022-09-21T17:50:46;7.10;;;3.20;;
21777;SDS011;11050;52.222;20.916;2022-09-21T17:53:13;5.43;;;3.53;;
21777;SDS011;11050;52.222;20.916;2022-09-21T17:56:01;4.60;;;3.42;;
21777;SDS011;11050;52.222;20.916;2022-09-21T18:01:59;4.43;;;3.45;;
21777;SDS011;11050;52.222;20.916;2022-09-21T18:04:27;5.97;;;3.65;;
21777;SDS011;11050;52.222;20.916;2022-09-21T18:06:56;7.30;;;4.07;;
21777;SDS011;11050;52.222;20.916;2022-09-21T18:09:22;4.38;;;3.10;;
21777;SDS011;11050;52.222;20.916;2022-09-21T18:11:53;5.28;;;3.50;;
21777;SDS011;11050;52.222;20.916;2022-09-21T18:22:48;7.18;;;3.47;;
21777;SDS011;11050;52.222;20.916;2022-09-21T18:25:35;5.50;;;3.38;;
21777;SDS011;11050;52.222;20.916;2022-09-21T18:28:14;4.75;;;3.30;;
21777;SDS011;11050;52.222;20.916;2022-09-21T18:45:12;6.80;;;4.63;;
21777;SDS011;11050;52.222;20.916;2022-09-21T18:53:14;6.28;;;4.60;;
21777;SDS011;11050;52.222;20.916;2022-09-21T18:55:52;7.07;;;4.03;;
21777;SDS011;11050;52.222;20.916;2022-09-21T18:58:18;7.65;;;3.72;;
21777;SDS011;11050;52.222;20.916;2022-09-21T19:00:46;5.88;;;4.40;;
21777;SDS011;11050;52.222;20.916;2022-09-21T19:03:13;5.82;;;3.67;;
21777;SDS011;11050;52.222;20.916;2022-09-21T19:05:41;7.95;;;4.40;;
21777;SDS011;11050;52.222;20.916;2022-09-21T19:11:08;8.13;;;4.65;;
21777;SDS011;11050;52.222;20.916;2022-09-21T19:22:43;6.97;;;4.93;;
21777;SDS011;11050;52.222;20.916;2022-09-21T19:25:35;8.55;;;4.93;;
21777;SDS011;11050;52.222;20.916;2022-09-21T19:31:11;7.55;;;5.10;;
21777;SDS011;11050;52.222;20.916;2022-09-21T19:33:41;6.97;;;4.90;;
21777;SDS011;11050;52.222;20.916;2022-09-21T19:36:09;11.30;;;6.03;;
21777;SDS011;11050;52.222;20.916;2022-09-21T19:38:35;7.70;;;5.47;;
21777;SDS011;11050;52.222;20.916;2022-09-21T19:41:23;10.02;;;6.47;;
21777;SDS011;11050;52.222;20.916;2022-09-21T19:46:42;7.13;;;5.40;;
21777;SDS011;11050;52.222;20.916;2022-09-21T19:49:23;10.45;;;5.45;;
21777;SDS011;11050;52.222;20.916;2022-09-21T19:52:07;13.27;;;6.33;;
21777;SDS011;11050;52.222;20.916;2022-09-21T19:54:40;9.07;;;5.60;;
21777;SDS011;11050;52.222;20.916;2022-09-21T19:57:25;8.50;;;4.72;;
21777;SDS011;11050;52.222;20.916;2022-09-21T20:00:11;11.00;;;6.13;;